Time;durP1;ratioP1;P1;durP2;ratioP2;P2;SDS_P1;SDS_P2;PMS_P1;PMS_P2;Temp;Humidity;BMP_temperature;BMP_pressure;BME280_temperature;BME280_humidity;BME280_pressure;Samples;Min_cycle;Max_cycle;Signal;HPM_P1;HPM_P2
2024/03/05 06:45:05;;;;;;;12.47;9.00;;;20.20;57.50;;;;;;5063751;28;20471;-86
2024/03/05 06:47:38;;;;;;;14.03;9.03;;;20.30;57.50;;;;;;5073019;28;20454;-88
2024/03/05 06:50:10;;;;;;;13.63;8.00;;;20.30;57.40;;;;;;5073327;28;20441;-80
2024/03/05 06:58:07;;;;;;;11.47;7.77;;;20.40;57.30;;;;;;5074322;28;20970;-79
2024/03/05 07:00:35;;;;;;;11.20;7.10;;;20.50;57.30;;;;;;5073710;28;20951;-79
2024/03/05 07:03:04;;;;;;;11.80;7.30;;;20.50;57.30;;;;;;5071242;28;20440;-79
2024/03/05 07:05:33;;;;;;;11.40;7.60;;;20.50;57.30;;;;;;5073569;28;20893;-79
2024/03/05 07:08:01;;;;;;;11.40;7.40;;;20.60;57.30;;;;;;5073901;28;20437;-80
2024/03/05 07:10:31;;;;;;;10.30;7.63;;;20.60;57.30;;;;;;5074116;28;20444;-83
2024/03/05 07:12:58;;;;;;;11.37;7.07;;;20.60;57.30;;;;;;5074004;28;20954;-80
2024/03/05 07:15:25;;;;;;;10.70;7.27;;;20.60;57.30;;;;;;5074483;28;20441;-79
2024/03/05 07:17:53;;;;;;;9.90;7.20;;;20.70;57.40;;;;;;5074275;28;20437;-79
2024/03/05 07:20:22;;;;;;;9.47;7.30;;;20.70;57.40;;;;;;5074441;28;20433;-79
2024/03/05 07:22:51;;;;;;;9.30;7.60;;;20.70;57.40;;;;;;5074270;28;20820;-79
2024/03/05 07:25:18;;;;;;;11.40;6.73;;;20.70;57.40;;;;;;5074146;28;20444;-83
2024/03/05 07:27:45;;;;;;;17.13;7.00;;;20.70;57.40;;;;;;5072889;28;20491;-79
2024/03/05 07:30:15;;;;;;;8.07;6.87;;;20.70;57.40;;;;;;5073992;28;20432;-80
2024/03/05 07:32:44;;;;;;;9.27;6.63;;;20.70;57.50;;;;;;5074342;28;20453;-80
2024/03/05 07:35:12;;;;;;;11.47;6.60;;;20.70;57.50;;;;;;5074070;28;20919;-80
2024/03/05 07:37:39;;;;;;;12.30;7.10;;;20.70;57.40;;;;;;5074047;28;20497;-82
2024/03/05 07:40:15;;;;;;;7.33;6.47;;;20.60;57.40;;;;;;5073792;28;20480;-79
2024/03/05 07:42:44;;;;;;;8.53;7.13;;;20.60;57.50;;;;;;5073908;28;20428;-79
2024/03/05 07:45:12;;;;;;;9.60;6.97;;;20.70;57.50;;;;;;5073880;28;20918;-79
2024/03/05 07:47:39;;;;;;;8.70;6.43;;;20.70;57.50;;;;;;5074009;28;20428;-81
2024/03/05 07:50:07;;;;;;;7.77;5.90;;;20.70;57.30;;;;;;5073994;28;20436;-80
2024/03/05 07:52:35;;;;;;;8.47;6.70;;;20.60;57.30;;;;;;5073600;28;20447;-79
2024/03/05 07:55:03;;;;;;;8.90;6.60;;;20.70;57.40;;;;;;5072885;28;20935;-79
2024/03/05 07:57:31;;;;;;;6.63;5.50;;;20.80;57.40;;;;;;5073821;28;20452;-80
2024/03/05 07:59:58;;;;;;;7.80;6.57;;;20.80;57.30;;;;;;5073773;28;20983;-88
2024/03/05 08:02:25;;;;;;;9.90;6.60;;;20.80;57.30;;;;;;5073855;28;20448;-87
2024/03/05 08:04:52;;;;;;;6.60;5.87;;;20.80;57.20;;;;;;5073326;28;20810;-79
2024/03/05 08:07:19;;;;;;;9.17;7.30;;;20.80;57.20;;;;;;5071357;28;20524;-80
2024/03/05 08:09:47;;;;;;;8.10;6.57;;;20.90;57.30;;;;;;5071825;28;20480;-81
2024/03/05 08:12:14;;;;;;;7.23;6.30;;;20.80;57.30;;;;;;5072605;28;20480;-81
2024/03/05 08:14:41;;;;;;;9.80;6.60;;;20.80;57.30;;;;;;5071190;28;20444;-79
2024/03/05 08:17:08;;;;;;;8.50;6.97;;;20.80;57.80;;;;;;5071998;28;20449;-80
2024/03/05 08:19:35;;;;;;;6.30;5.70;;;20.80;57.30;;;;;;5071646;28;20990;-85
2024/03/05 08:22:03;;;;;;;9.00;6.70;;;20.80;57.30;;;;;;5072608;28;20540;-89
2024/03/05 08:24:29;;;;;;;10.27;6.17;;;20.80;57.30;;;;;;5072603;28;20476;-88
2024/03/05 08:26:57;;;;;;;6.97;6.27;;;20.80;57.30;;;;;;5071436;28;20813;-84
2024/03/05 08:29:25;;;;;;;7.93;6.33;;;20.80;57.20;;;;;;5072678;28;20539;-85
2024/03/05 08:31:52;;;;;;;7.20;6.20;;;20.80;57.20;;;;;;5073412;28;20437;-86
2024/03/05 08:34:19;;;;;;;8.67;6.60;;;20.80;57.30;;;;;;5072785;28;20443;-81
2024/03/05 08:36:46;;;;;;;6.80;5.83;;;20.80;57.30;;;;;;5073129;28;20445;-86
2024/03/05 08:39:17;;;;;;;6.77;5.80;;;20.80;57.40;;;;;;5073036;28;20503;-81
2024/03/05 08:41:46;;;;;;;7.40;5.60;;;20.80;57.40;;;;;;5073077;28;20444;-83
2024/03/05 08:44:15;;;;;;;6.60;5.80;;;20.80;57.40;;;;;;5072885;28;20575;-81
2024/03/05 08:46:42;;;;;;;7.60;5.70;;;20.80;57.50;;;;;;5072974;28;20867;-84
2024/03/05 08:49:09;;;;;;;5.50;4.50;;;20.80;57.50;;;;;;5073292;28;20789;-87
2024/03/05 08:51:38;;;;;;;5.73;5.13;;;20.80;57.40;;;;;;5072981;28;20519;-84
2024/03/05 08:54:08;;;;;;;8.17;5.60;;;20.80;57.50;;;;;;5086956;28;20448;-85
2024/03/05 08:56:36;;;;;;;7.90;5.83;;;20.80;57.50;;;;;;5094272;28;20420;-85
2024/03/05 08:59:05;;;;;;;8.67;6.07;;;20.80;57.40;;;;;;5078612;28;20488;-88
2024/03/05 09:01:33;;;;;;;9.00;5.30;;;20.80;57.40;;;;;;5073379;28;20443;-89
2024/03/05 09:04:00;;;;;;;6.00;5.43;;;20.80;57.40;;;;;;5073056;28;20466;-89
2024/03/05 09:06:28;;;;;;;7.27;5.40;;;20.80;57.40;;;;;;5072448;28;20463;-87
2024/03/05 09:08:54;;;;;;;6.50;5.40;;;20.90;57.50;;;;;;5072887;28;20532;-88
2024/03/05 09:11:21;;;;;;;7.50;6.20;;;20.90;57.40;;;;;;5073708;28;20447;-86
2024/03/05 09:13:49;;;;;;;7.00;5.33;;;20.90;57.40;;;;;;5073388;28;20440;-88
2024/03/05 09:16:16;;;;;;;7.13;5.40;;;20.90;57.40;;;;;;5072329;28;20445;-85
2024/03/05 09:18:45;;;;;;;7.40;5.63;;;21.00;57.50;;;;;;5073100;28;20487;-86
2024/03/05 09:21:11;;;;;;;5.40;4.80;;;21.00;57.50;;;;;;5077274;28;20440;-89
2024/03/05 09:23:39;;;;;;;7.50;5.60;;;21.00;57.50;;;;;;5078214;28;20460;-82
2024/03/05 09:26:08;;;;;;;6.90;5.17;;;21.00;57.50;;;;;;5076229;28;20437;-81
2024/03/05 09:28:35;;;;;;;9.83;5.33;;;21.00;57.40;;;;;;5076943;28;20535;-86
2024/03/05 09:31:02;;;;;;;6.10;5.50;;;21.10;57.50;;;;;;5076366;28;20440;-81
2024/03/05 09:33:30;;;;;;;8.50;5.23;;;21.10;57.50;;;;;;5076336;28;20432;-86
2024/03/05 09:35:59;;;;;;;6.83;5.53;;;21.10;57.50;;;;;;5076626;28;20850;-87
2024/03/05 09:38:26;;;;;;;6.10;5.03;;;21.10;57.50;;;;;;5076498;28;20443;-87
2024/03/05 09:40:54;;;;;;;5.93;4.37;;;21.10;57.50;;;;;;5076203;28;20437;-86
2024/03/05 09:43:22;;;;;;;5.10;4.60;;;21.20;57.60;;;;;;5075280;28;20446;-83
2024/03/05 09:45:51;;;;;;;6.30;5.10;;;21.10;57.50;;;;;;5075236;28;20536;-80
2024/03/05 09:48:20;;;;;;;5.67;4.73;;;21.10;57.50;;;;;;5075327;28;20437;-89
2024/03/05 09:50:49;;;;;;;5.70;4.47;;;21.20;57.50;;;;;;5076161;28;20468;-89
2024/03/05 09:53:18;;;;;;;8.13;5.30;;;21.10;57.40;;;;;;5075393;28;20478;-84
2024/03/05 09:55:44;;;;;;;5.50;4.80;;;21.10;57.40;;;;;;5071127;28;20469;-86
2024/03/05 09:58:14;;;;;;;5.63;4.50;;;21.10;57.40;;;;;;5055474;28;20437;-83
2024/03/05 10:00:41;;;;;;;5.10;4.40;;;21.10;57.40;;;;;;5054445;28;20481;-87
2024/03/05 10:03:08;;;;;;;4.67;4.20;;;21.10;57.40;;;;;;5063288;28;20431;-83
2024/03/05 10:05:36;;;;;;;5.73;4.50;;;21.10;57.40;;;;;;5075062;28;20980;-86
2024/03/05 10:08:04;;;;;;;6.47;4.83;;;21.10;57.50;;;;;;5071616;28;20442;-87
2024/03/05 10:10:33;;;;;;;6.57;5.33;;;21.10;57.50;;;;;;5071838;28;20436;-86
2024/03/05 10:13:02;;;;;;;5.97;4.73;;;21.10;57.50;;;;;;5074204;28;20931;-89
2024/03/05 10:15:29;;;;;;;4.70;4.10;;;21.10;57.50;;;;;;5075110;28;20457;-92
2024/03/05 10:17:56;;;;;;;6.80;5.10;;;21.10;57.50;;;;;;5076095;28;20444;-82
2024/03/05 10:20:27;;;;;;;6.50;4.87;;;21.10;57.50;;;;;;5078325;28;20537;-81
2024/03/05 10:22:56;;;;;;;5.43;4.90;;;21.10;57.50;;;;;;5079363;28;20840;-82
2024/03/05 10:25:23;;;;;;;5.23;4.53;;;21.10;57.50;;;;;;5091991;28;20479;-83
2024/03/05 10:27:52;;;;;;;5.13;4.63;;;21.20;57.60;;;;;;5092311;28;20444;-82
2024/03/05 10:30:22;;;;;;;5.57;4.50;;;21.10;57.50;;;;;;5092703;28;20479;-80
2024/03/05 10:32:53;;;;;;;4.80;4.20;;;21.10;57.50;;;;;;5076930;28;21242;-86
2024/03/05 10:35:20;;;;;;;6.50;4.90;;;21.20;57.50;;;;;;5075553;28;20452;-88
2024/03/05 10:37:56;;;;;;;6.13;4.93;;;21.10;57.40;;;;;;5061984;28;20437;-87
2024/03/05 10:40:24;;;;;;;7.33;4.77;;;21.20;57.50;;;;;;5073152;28;20494;-86
2024/03/05 10:42:53;;;;;;;5.30;4.27;;;21.20;57.50;;;;;;5074431;28;20447;-85
2024/03/05 10:45:23;;;;;;;4.63;3.90;;;21.20;57.50;;;;;;5073992;28;20476;-85
2024/03/05 10:47:51;;;;;;;5.20;4.00;;;21.20;57.50;;;;;;5074590;28;20436;-85
2024/03/05 10:50:19;;;;;;;5.37;4.60;;;21.20;57.40;;;;;;5056324;28;20521;-81
2024/03/05 10:52:48;;;;;;;5.33;4.53;;;21.20;57.50;;;;;;5054201;28;20469;-81
2024/03/05 10:55:21;;;;;;;4.80;4.00;;;21.20;57.40;;;;;;5054214;28;20437;-87
2024/03/05 11:00:35;;;;;;;6.33;5.33;;;21.20;57.40;;;;;;5074196;28;21040;-88
2024/03/05 11:03:07;;;;;;;4.97;4.00;;;21.20;57.40;;;;;;5074723;28;20482;-89
2024/03/05 11:05:40;;;;;;;4.63;3.93;;;21.20;57.40;;;;;;5073972;28;20452;-83
2024/03/05 11:08:12;;;;;;;5.47;4.87;;;21.20;57.40;;;;;;5073774;28;20440;-88
2024/03/05 11:10:41;;;;;;;5.57;4.63;;;21.20;57.40;;;;;;5054136;28;20455;-82
2024/03/05 11:13:10;;;;;;;5.40;4.47;;;21.20;57.40;;;;;;5053934;28;20437;-89
2024/03/05 11:15:39;;;;;;;5.60;4.70;;;21.20;57.40;;;;;;5067656;28;20813;-89
2024/03/05 11:18:26;;;;;;;4.93;4.40;;;21.20;57.30;;;;;;5074156;28;20454;-88
2024/03/05 11:20:53;;;;;;;6.47;4.87;;;21.30;57.40;;;;;;5060189;28;20478;-88
2024/03/05 11:23:21;;;;;;;5.30;4.70;;;21.30;57.40;;;;;;5073687;28;20484;-84
2024/03/05 11:25:51;;;;;;;3.77;3.27;;;21.20;57.30;;;;;;5073796;28;20528;-87
2024/03/05 11:28:18;;;;;;;5.40;4.20;;;21.30;57.40;;;;;;5056056;28;20444;-85
2024/03/05 11:30:46;;;;;;;4.50;4.10;;;21.30;57.40;;;;;;5053401;28;20442;-85
2024/03/05 11:33:15;;;;;;;5.50;4.70;;;21.20;57.30;;;;;;5053375;28;20524;-85
2024/03/05 11:35:43;;;;;;;5.60;4.40;;;21.20;57.30;;;;;;5053534;28;20445;-82
2024/03/05 11:38:14;;;;;;;4.33;3.93;;;21.20;57.40;;;;;;5069566;28;20471;-93
2024/03/05 11:40:42;;;;;;;4.47;3.80;;;21.20;57.40;;;;;;5073704;28;20483;-85
2024/03/05 11:43:09;;;;;;;4.80;3.87;;;21.20;57.40;;;;;;5073327;28;20446;-86
2024/03/05 11:45:42;;;;;;;4.97;4.00;;;21.20;57.30;;;;;;5070988;28;20576;-81
2024/03/05 11:48:11;;;;;;;4.40;3.97;;;21.20;57.30;;;;;;5078737;28;20496;-87
2024/03/05 11:50:39;;;;;;;5.27;4.50;;;21.30;57.40;;;;;;5083322;28;20455;-86
2024/03/05 11:53:08;;;;;;;5.40;4.30;;;21.20;57.30;;;;;;5086887;28;20583;-84
2024/03/05 11:55:35;;;;;;;5.00;4.33;;;21.30;57.40;;;;;;5075699;28;20875;-87
2024/03/05 11:58:02;;;;;;;6.33;4.50;;;21.30;57.40;;;;;;5074758;28;20440;-85
2024/03/05 12:00:29;;;;;;;3.90;3.50;;;21.30;57.40;;;;;;5072958;28;20638;-86
2024/03/05 12:02:56;;;;;;;3.80;3.50;;;21.30;57.40;;;;;;5073431;28;20459;-85
2024/03/05 12:05:25;;;;;;;4.20;3.80;;;21.30;57.30;;;;;;5073084;28;20440;-84
2024/03/05 12:07:59;;;;;;;4.83;4.40;;;21.40;57.40;;;;;;5072940;28;20444;-84
2024/03/05 12:10:31;;;;;;;4.60;4.00;;;21.30;57.30;;;;;;5053617;28;20436;-86
2024/03/05 12:12:59;;;;;;;4.60;4.00;;;21.40;57.40;;;;;;5059695;28;20440;-85
2024/03/05 12:15:27;;;;;;;4.23;3.83;;;21.30;57.30;;;;;;5072334;28;20457;-92
2024/03/05 12:17:54;;;;;;;3.90;3.40;;;21.30;57.30;;;;;;5074125;28;20484;-88
2024/03/05 12:20:21;;;;;;;4.13;3.73;;;21.40;57.30;;;;;;5074372;28;20986;-88
2024/03/05 12:22:53;;;;;;;4.00;3.50;;;21.30;57.20;;;;;;5074646;28;20804;-87
2024/03/05 12:25:21;;;;;;;5.10;3.77;;;21.30;57.20;;;;;;5073808;28;20437;-81
2024/03/05 12:27:48;;;;;;;6.20;4.73;;;21.30;57.30;;;;;;5073850;28;20871;-83
2024/03/05 12:30:15;;;;;;;5.00;4.43;;;21.30;57.30;;;;;;5073807;28;20439;-89
2024/03/05 12:32:44;;;;;;;4.80;3.40;;;21.30;57.30;;;;;;5073245;28;20531;-87
2024/03/05 12:35:13;;;;;;;5.43;4.20;;;21.30;57.30;;;;;;5071109;28;20850;-79
2024/03/05 12:37:40;;;;;;;4.53;4.03;;;21.40;58.00;;;;;;5072922;28;20432;-79
2024/03/05 12:40:15;;;;;;;4.90;4.17;;;21.40;57.40;;;;;;5072751;28;20570;-82
2024/03/05 12:42:44;;;;;;;4.40;3.73;;;21.40;57.40;;;;;;5073122;28;20448;-79
2024/03/05 12:45:11;;;;;;;6.00;3.80;;;21.40;57.40;;;;;;5070901;28;20907;-79
2024/03/05 12:47:39;;;;;;;4.03;3.43;;;21.40;57.40;;;;;;5070539;28;20447;-80
2024/03/05 12:50:08;;;;;;;6.20;4.47;;;21.40;57.50;;;;;;5070691;28;20443;-80
2024/03/05 12:52:34;;;;;;;4.27;3.87;;;21.40;57.50;;;;;;5070309;28;20466;-80
2024/03/05 12:55:03;;;;;;;4.80;4.30;;;21.40;57.50;;;;;;5073952;28;20443;-79
2024/03/05 12:57:32;;;;;;;5.73;3.70;;;21.40;57.50;;;;;;5074483;28;20931;-78
2024/03/05 13:00:01;;;;;;;5.50;4.17;;;21.40;57.60;;;;;;5075643;28;20483;-78
2024/03/05 13:02:27;;;;;;;4.33;3.83;;;21.40;57.70;;;;;;5076979;28;20844;-78
2024/03/05 13:04:54;;;;;;;4.10;3.63;;;21.40;57.80;;;;;;5076621;28;20439;-78
2024/03/05 13:07:21;;;;;;;4.60;4.20;;;21.30;57.80;;;;;;5076788;28;20428;-83
2024/03/05 13:09:49;;;;;;;5.27;4.10;;;21.40;57.80;;;;;;5076787;28;20523;-84
2024/03/05 13:12:17;;;;;;;8.27;4.53;;;21.40;57.90;;;;;;5076683;28;20511;-83
2024/03/05 13:14:45;;;;;;;6.83;4.03;;;21.40;57.90;;;;;;5073844;28;20939;-83
2024/03/05 13:17:12;;;;;;;6.00;4.03;;;21.40;58.00;;;;;;5069169;28;20449;-85
2024/03/05 13:19:39;;;;;;;5.10;3.97;;;21.40;58.10;;;;;;5060488;28;21011;-81
2024/03/05 13:22:07;;;;;;;4.97;3.57;;;21.40;58.10;;;;;;5068540;28;20470;-83
2024/03/05 13:24:34;;;;;;;5.00;4.03;;;21.40;58.10;;;;;;5073168;28;20547;-83
2024/03/05 13:27:03;;;;;;;5.90;3.97;;;21.40;58.10;;;;;;5074499;28;20448;-89
2024/03/05 13:29:29;;;;;;;4.10;3.53;;;21.40;58.10;;;;;;5074139;28;20931;-80
2024/03/05 13:31:59;;;;;;;5.30;3.80;;;21.40;58.10;;;;;;5073236;28;20444;-81
2024/03/05 13:34:26;;;;;;;4.90;4.17;;;21.40;58.10;;;;;;5074064;28;20535;-83
2024/03/05 13:36:54;;;;;;;4.80;4.00;;;21.40;58.20;;;;;;5072664;28;20669;-86
2024/03/05 13:39:22;;;;;;;6.63;3.87;;;21.40;58.20;;;;;;5073375;28;20449;-84
2024/03/05 13:41:52;;;;;;;4.17;3.60;;;21.40;58.20;;;;;;5074407;28;20578;-84
2024/03/05 13:44:21;;;;;;;5.40;3.60;;;21.50;58.30;;;;;;5074841;28;20558;-84
2024/03/05 13:46:50;;;;;;;5.10;4.40;;;21.50;58.30;;;;;;5075066;28;20436;-83
2024/03/05 13:49:19;;;;;;;4.23;3.83;;;21.50;58.20;;;;;;5075519;28;20540;-83
2024/03/05 13:51:46;;;;;;;4.53;3.87;;;21.50;58.30;;;;;;5075233;28;20459;-83
2024/03/05 13:54:13;;;;;;;4.10;3.57;;;21.50;58.30;;;;;;5075249;28;20463;-84
2024/03/05 13:56:40;;;;;;;4.07;3.30;;;21.50;58.30;;;;;;5074787;28;20442;-84
2024/03/05 13:59:09;;;;;;;4.10;3.23;;;21.50;58.20;;;;;;5075266;28;20494;-84
2024/03/05 14:01:36;;;;;;;3.70;3.23;;;21.50;58.20;;;;;;5074756;28;20487;-83
2024/03/05 14:04:09;;;;;;;3.77;3.40;;;21.60;58.10;;;;;;5074625;28;20451;-83
2024/03/05 14:06:38;;;;;;;4.97;3.47;;;21.50;58.00;;;;;;5074124;28;20433;-84
2024/03/05 14:09:08;;;;;;;3.80;3.40;;;21.60;58.00;;;;;;5074592;28;20436;-85
2024/03/05 14:11:35;;;;;;;4.43;3.33;;;21.50;57.90;;;;;;5074487;28;20451;-84
2024/03/05 14:14:02;;;;;;;3.70;3.03;;;21.50;57.90;;;;;;5074759;28;20508;-89
2024/03/05 14:16:29;;;;;;;3.10;2.80;;;21.60;57.90;;;;;;5074505;28;20826;-83
2024/03/05 14:18:55;;;;;;;8.70;3.97;;;21.60;57.90;;;;;;5074583;28;20444;-84
2024/03/05 14:21:25;;;;;;;3.77;3.30;;;21.60;57.90;;;;;;5074852;28;20484;-84
2024/03/05 14:23:53;;;;;;;3.90;3.33;;;21.60;57.90;;;;;;5074175;28;20480;-85
2024/03/05 14:26:20;;;;;;;4.10;3.70;;;21.60;57.80;;;;;;5074607;28;20442;-86
2024/03/05 14:28:47;;;;;;;3.70;3.33;;;21.60;57.80;;;;;;5074763;28;20436;-84
2024/03/05 14:31:13;;;;;;;4.00;3.60;;;21.60;57.80;;;;;;5074857;28;20443;-84
2024/03/05 14:33:40;;;;;;;4.40;3.90;;;21.60;57.80;;;;;;5074677;28;20802;-84
2024/03/05 14:36:08;;;;;;;4.30;3.20;;;21.60;57.80;;;;;;5073460;28;20445;-81
2024/03/05 14:38:37;;;;;;;3.47;2.93;;;21.60;57.80;;;;;;5073246;28;20521;-92
2024/03/05 14:41:05;;;;;;;3.70;3.30;;;21.60;57.10;;;;;;5074290;28;20587;-81
2024/03/05 14:43:33;;;;;;;3.27;2.97;;;21.50;57.20;;;;;;5074218;28;20448;-85
2024/03/05 14:46:00;;;;;;;4.57;3.13;;;21.50;57.50;;;;;;5074777;28;20451;-85
2024/03/05 14:48:27;;;;;;;5.47;2.97;;;21.50;57.50;;;;;;5094187;28;20452;-85
2024/03/05 14:50:54;;;;;;;6.10;3.73;;;21.60;57.50;;;;;;5092243;28;20508;-85
2024/03/05 14:53:21;;;;;;;3.83;3.40;;;21.70;57.60;;;;;;5073585;28;20456;-84
2024/03/05 14:55:47;;;;;;;3.57;3.27;;;21.70;57.50;;;;;;5073464;28;20547;-85
2024/03/05 14:58:16;;;;;;;4.43;3.13;;;21.70;58.20;;;;;;5072444;28;20446;-85
2024/03/05 15:00:43;;;;;;;4.53;3.03;;;21.70;57.50;;;;;;5072807;28;20504;-85
2024/03/05 15:03:10;;;;;;;4.07;3.33;;;21.60;57.40;;;;;;5072874;28;20440;-85
2024/03/05 15:05:36;;;;;;;6.40;3.10;;;21.70;57.50;;;;;;5072566;28;20546;-89
2024/03/05 15:08:03;;;;;;;2.90;2.60;;;21.70;57.50;;;;;;5072744;28;20440;-85
2024/03/05 15:10:31;;;;;;;3.00;2.67;;;21.70;57.50;;;;;;5072467;28;20967;-89
2024/03/05 15:12:57;;;;;;;4.23;2.80;;;21.70;57.50;;;;;;5072896;28;20907;-85
2024/03/05 15:15:26;;;;;;;2.93;2.63;;;21.70;57.50;;;;;;5075651;28;20440;-86
2024/03/05 15:17:54;;;;;;;3.30;3.00;;;21.70;57.50;;;;;;5073518;28;20448;-84
2024/03/05 15:20:21;;;;;;;5.43;3.93;;;21.70;57.50;;;;;;5074377;28;20459;-85
2024/03/05 15:22:49;;;;;;;2.97;2.67;;;21.70;57.50;;;;;;5074194;28;20464;-85
2024/03/05 15:25:19;;;;;;;2.77;2.37;;;21.70;57.50;;;;;;5074229;28;20935;-85
2024/03/05 15:27:46;;;;;;;5.77;3.30;;;21.70;57.50;;;;;;5074375;28;20441;-86
2024/03/05 15:30:15;;;;;;;3.20;2.70;;;21.70;57.50;;;;;;5074267;28;20951;-85
2024/03/05 15:32:47;;;;;;;3.27;2.63;;;21.70;57.40;;;;;;5074452;28;20872;-85
2024/03/05 15:35:14;;;;;;;3.97;3.10;;;21.70;57.40;;;;;;5074126;28;20440;-85
2024/03/05 15:37:42;;;;;;;3.10;2.80;;;21.80;57.50;;;;;;5074279;28;20436;-85
2024/03/05 15:40:18;;;;;;;2.97;2.33;;;21.70;57.40;;;;;;5074100;28;20432;-90
2024/03/05 15:42:46;;;;;;;3.17;2.73;;;21.70;57.40;;;;;;5073945;28;20448;-88
2024/03/05 15:45:13;;;;;;;3.13;2.60;;;21.70;57.40;;;;;;5081228;28;20460;-85
2024/03/05 15:47:41;;;;;;;3.83;2.80;;;21.70;57.40;;;;;;5086057;28;20527;-85
2024/03/05 15:50:12;;;;;;;3.40;2.53;;;21.80;57.50;;;;;;5081814;28;20475;-85
2024/03/05 15:52:39;;;;;;;8.80;2.83;;;21.70;57.40;;;;;;5081853;28;20477;-85
2024/03/05 15:55:09;;;;;;;3.47;2.40;;;21.70;57.40;;;;;;5074261;28;20484;-85
2024/03/05 15:57:53;;;;;;;3.50;2.57;;;21.70;57.40;;;;;;5073817;28;20511;-89
2024/03/05 16:00:20;;;;;;;4.20;2.57;;;21.80;57.40;;;;;;5073618;28;20878;-88
2024/03/05 16:02:47;;;;;;;3.50;2.60;;;21.90;57.50;;;;;;5073763;28;20440;-84
2024/03/05 16:05:16;;;;;;;6.43;2.40;;;21.70;57.40;;;;;;5073351;28;20989;-85
2024/03/05 16:07:45;;;;;;;4.40;2.90;;;21.70;57.30;;;;;;5073839;28;20432;-85
2024/03/05 16:10:16;;;;;;;5.50;2.97;;;21.80;57.40;;;;;;5073492;28;20435;-85
2024/03/05 16:12:43;;;;;;;6.00;2.33;;;21.80;57.50;;;;;;5073582;28;20498;-84
2024/03/05 16:15:12;;;;;;;5.83;2.40;;;21.80;57.50;;;;;;5073266;28;20432;-85
2024/03/05 16:17:39;;;;;;;3.63;2.67;;;21.80;57.40;;;;;;5073407;28;20513;-85
2024/03/05 16:20:08;;;;;;;3.30;2.27;;;21.80;57.40;;;;;;5073431;28;20448;-86
2024/03/05 16:22:36;;;;;;;3.30;2.20;;;21.80;57.40;;;;;;5073376;28;20494;-86
2024/03/05 16:25:11;;;;;;;3.60;2.43;;;21.80;57.40;;;;;;5073797;28;20439;-89
2024/03/05 16:27:39;;;;;;;3.23;2.90;;;21.80;57.40;;;;;;5073609;28;20527;-85
2024/03/05 16:30:07;;;;;;;3.70;2.17;;;21.80;57.30;;;;;;5073165;28;20440;-85
2024/03/05 16:32:35;;;;;;;4.50;2.97;;;21.80;57.30;;;;;;5073647;28;20444;-90
2024/03/05 16:35:02;;;;;;;3.07;2.57;;;21.80;57.90;;;;;;5073228;28;20472;-85
2024/03/05 16:37:30;;;;;;;1.93;1.73;;;21.90;57.30;;;;;;5073501;28;20436;-84
2024/03/05 16:39:58;;;;;;;3.77;2.57;;;21.80;57.20;;;;;;5073526;28;20444;-84
2024/03/05 16:42:26;;;;;;;2.53;2.13;;;21.90;57.30;;;;;;5073232;28;20484;-84
2024/03/05 16:44:53;;;;;;;2.87;2.30;;;21.90;57.90;;;;;;5072679;28;20559;-85
2024/03/05 16:47:20;;;;;;;3.67;2.50;;;21.90;57.20;;;;;;5073084;28;20443;-84
2024/03/05 16:49:47;;;;;;;5.83;2.60;;;21.90;57.20;;;;;;5073113;28;20444;-84
2024/03/05 16:52:13;;;;;;;3.47;2.33;;;21.90;57.20;;;;;;5073200;28;20452;-84
2024/03/05 16:54:40;;;;;;;2.60;2.40;;;21.80;57.20;;;;;;5073383;28;20810;-84
2024/03/05 16:57:10;;;;;;;2.33;2.13;;;21.90;57.30;;;;;;5073202;28;20451;-84
2024/03/05 16:59:37;;;;;;;4.40;2.77;;;21.90;57.30;;;;;;5073129;28;20436;-85
2024/03/05 17:02:06;;;;;;;2.50;2.17;;;22.00;57.40;;;;;;5072816;28;20488;-84
2024/03/05 17:04:33;;;;;;;3.30;2.50;;;21.90;57.20;;;;;;5073133;28;20468;-84
2024/03/05 17:07:00;;;;;;;2.70;2.40;;;21.90;57.20;;;;;;5073401;28;20443;-84
2024/03/05 17:09:29;;;;;;;4.73;2.60;;;21.90;57.20;;;;;;5073019;28;20791;-83
2024/03/05 17:11:58;;;;;;;2.57;2.37;;;21.90;57.20;;;;;;5072871;28;20440;-84
2024/03/05 17:14:27;;;;;;;2.80;2.27;;;21.90;57.30;;;;;;5072974;28;20443;-84
2024/03/05 17:16:57;;;;;;;3.70;2.23;;;21.90;57.20;;;;;;5072916;28;20441;-88
2024/03/05 17:19:26;;;;;;;2.80;2.40;;;21.90;57.20;;;;;;5072867;28;20442;-84
2024/03/05 17:21:53;;;;;;;3.30;2.70;;;21.90;57.30;;;;;;5072754;28;20493;-83
2024/03/05 17:24:21;;;;;;;2.80;2.53;;;21.90;57.30;;;;;;5072804;28;21028;-85
2024/03/05 17:26:49;;;;;;;2.83;2.10;;;21.90;57.30;;;;;;5072981;28;20440;-89
2024/03/05 17:29:18;;;;;;;3.60;2.40;;;21.90;57.30;;;;;;5072903;28;20578;-85
2024/03/05 17:31:48;;;;;;;3.60;2.77;;;21.80;57.30;;;;;;5072861;28;20441;-89
2024/03/05 17:34:15;;;;;;;2.63;2.17;;;21.80;57.40;;;;;;5072914;28;20964;-85
2024/03/05 17:36:41;;;;;;;4.47;3.20;;;21.80;57.30;;;;;;5072666;28;20432;-87
2024/03/05 17:39:11;;;;;;;3.17;2.87;;;21.80;57.80;;;;;;5072813;28;20464;-88
2024/03/05 17:41:38;;;;;;;2.27;2.07;;;21.80;57.30;;;;;;5075252;28;20484;-85
2024/03/05 17:44:05;;;;;;;2.53;2.17;;;21.80;57.30;;;;;;5076316;28;20517;-85
2024/03/05 17:46:32;;;;;;;2.70;2.23;;;21.80;57.40;;;;;;5096406;28;20424;-83
2024/03/05 17:49:01;;;;;;;2.40;2.00;;;21.80;57.40;;;;;;5099660;28;20516;-86
2024/03/05 17:51:27;;;;;;;3.67;2.43;;;21.80;57.40;;;;;;5078986;28;20524;-85
2024/03/05 17:53:55;;;;;;;3.00;2.20;;;21.80;57.30;;;;;;5079458;28;20459;-85
2024/03/05 17:56:21;;;;;;;2.93;2.13;;;21.80;57.30;;;;;;5077569;28;20947;-84
2024/03/05 17:58:48;;;;;;;2.60;2.40;;;21.80;57.30;;;;;;5076451;28;20849;-85
2024/03/05 18:01:18;;;;;;;2.70;2.30;;;21.90;57.40;;;;;;5075793;28;20475;-84
2024/03/05 18:03:47;;;;;;;2.40;1.97;;;21.80;57.30;;;;;;5076892;28;20435;-89
2024/03/05 18:06:15;;;;;;;3.20;2.37;;;21.90;57.40;;;;;;5079435;28;20523;-93
2024/03/05 18:08:44;;;;;;;3.03;2.30;;;21.80;57.30;;;;;;5073262;28;20444;-84
2024/03/05 18:11:12;;;;;;;2.77;2.20;;;21.80;57.30;;;;;;5076634;28;20455;-86
2024/03/05 18:13:42;;;;;;;2.97;2.33;;;21.90;57.30;;;;;;5075573;28;20457;-85
2024/03/05 18:16:10;;;;;;;6.03;2.17;;;21.80;57.10;;;;;;5076538;28;20440;-85
2024/03/05 18:18:37;;;;;;;2.67;2.00;;;21.80;57.10;;;;;;5075998;28;20441;-85
2024/03/05 18:21:05;;;;;;;2.50;2.20;;;21.80;57.20;;;;;;5076746;28;20630;-85
2024/03/05 18:23:33;;;;;;;3.10;2.53;;;21.80;57.20;;;;;;5075571;28;20492;-87
2024/03/05 18:26:01;;;;;;;2.10;1.87;;;21.80;57.30;;;;;;5075650;28;20441;-86
2024/03/05 18:28:28;;;;;;;3.83;2.17;;;21.80;57.20;;;;;;5075165;28;20448;-84
2024/03/05 18:30:55;;;;;;;3.33;2.37;;;21.90;57.30;;;;;;5075079;28;20809;-85
2024/03/05 18:33:22;;;;;;;3.50;2.13;;;21.90;56.60;;;;;;5073654;28;20505;-85
2024/03/05 18:35:49;;;;;;;2.63;2.03;;;21.80;56.50;;;;;;5074210;28;20448;-92
2024/03/05 18:38:16;;;;;;;2.87;2.30;;;21.80;56.60;;;;;;5075020;28;20437;-85
2024/03/05 18:40:44;;;;;;;2.90;2.10;;;21.80;56.60;;;;;;5075694;28;20475;-95
2024/03/05 18:43:11;;;;;;;3.57;2.03;;;21.70;56.60;;;;;;5075790;28;20571;-85
2024/03/05 18:45:39;;;;;;;2.67;2.33;;;21.70;56.60;;;;;;5075896;28;20472;-85
2024/03/05 18:48:07;;;;;;;3.40;2.20;;;21.70;56.60;;;;;;5076264;28;20588;-85
2024/03/05 18:50:34;;;;;;;2.90;2.20;;;21.70;56.60;;;;;;5077384;28;20456;-86
2024/03/05 18:53:02;;;;;;;4.07;2.40;;;21.70;56.60;;;;;;5075965;28;20782;-85
2024/03/05 18:55:29;;;;;;;3.90;1.63;;;21.80;56.60;;;;;;5076617;28;20441;-85
2024/03/05 18:57:58;;;;;;;2.33;1.83;;;21.70;56.50;;;;;;5075529;28;20460;-85
2024/03/05 19:00:26;;;;;;;2.73;1.90;;;21.70;56.60;;;;;;5076023;28;20440;-95
2024/03/05 19:02:53;;;;;;;2.80;2.13;;;21.70;56.50;;;;;;5075515;28;20576;-85
2024/03/05 19:05:21;;;;;;;3.43;1.93;;;21.70;56.50;;;;;;5075639;28;20440;-85
2024/03/05 19:07:51;;;;;;;2.20;1.80;;;21.60;56.50;;;;;;5075575;28;20467;-85
2024/03/05 19:10:19;;;;;;;2.83;1.93;;;21.70;56.50;;;;;;5076097;28;20444;-96
2024/03/05 19:12:46;;;;;;;3.03;2.17;;;21.70;56.50;;;;;;5079636;28;20598;-86
2024/03/05 19:15:16;;;;;;;2.77;1.90;;;21.60;56.40;;;;;;5075195;28;20434;-85
2024/03/05 19:17:47;;;;;;;2.47;1.90;;;21.70;56.60;;;;;;5074645;28;20524;-85
2024/03/05 19:20:14;;;;;;;3.43;1.83;;;21.70;56.60;;;;;;5075102;28;20486;-86
2024/03/05 19:22:41;;;;;;;3.80;2.37;;;21.70;56.60;;;;;;5075333;28;20857;-85
2024/03/05 19:25:10;;;;;;;2.20;1.83;;;21.80;56.70;;;;;;5075221;28;20445;-87
2024/03/05 19:27:37;;;;;;;2.13;1.80;;;21.80;56.70;;;;;;5074915;28;20443;-86
2024/03/05 19:30:12;;;;;;;2.80;2.00;;;21.80;56.70;;;;;;5074662;28;20791;-84
2024/03/05 19:32:40;;;;;;;2.23;2.03;;;21.80;56.80;;;;;;5074250;28;20436;-82
2024/03/05 19:35:10;;;;;;;2.80;2.10;;;21.90;56.80;;;;;;5075646;28;20432;-91
2024/03/05 19:37:38;;;;;;;2.93;2.00;;;21.80;56.60;;;;;;5055410;28;20467;-84
2024/03/05 19:40:06;;;;;;;2.17;1.87;;;21.80;56.70;;;;;;5054374;28;20440;-85
2024/03/05 19:42:33;;;;;;;2.40;1.90;;;21.80;56.70;;;;;;5054296;28;20513;-88